Green Lofoten — P3MG8 — position and weather

sailwx.info

Track history (hours):
 
Tides and Currents Weather Stations Pressure Air Temp Water Temp Dewpoint Dewpoint Depression Visibility Wind Speed Wind Dir Waves Ship Positions

Green Lofoten

Last reported at 2015-Apr-03 23:04 UTC. Time now 2015-Apr-21 09:52 UTC.
Position N 27°30' W 015°18'.
Warning: this ship's position is 17 days out of date.

Length 98 m; draft 4.9 m.

Type: Cargo ship. MMSI: 212857000.

Date/timePositionNaut miles runAvg speedWind from/ knotsBaromVisibWave heightAir tempDewpointWater temp
2015-Apr-03 23:04N 27°30' W 015°18'713.2
2015-Apr-03 22:33N 27°36' W 015°15'1313.3
2015-Apr-03 21:33N 27°49' W 015°11'1313.0
2015-Apr-03 20:33N 28°01' W 015°16'1110.4
2015-Apr-03 19:33N 28°08' W 015°25'0 0.2
2015-Apr-03 18:33N 28°09' W 015°25'0 0.0
2015-Apr-03 17:33N 28°09' W 015°25'0 0.0
2015-Apr-03 16:33N 28°09' W 015°25'0 0.0
2015-Apr-03 15:33N 28°09' W 015°25'0 0.0
2015-Apr-03 14:33N 28°09' W 015°25'0 0.0
2015-Apr-03 13:33N 28°09' W 015°25'0 0.0
2015-Apr-03 12:24N 28°09' W 015°25'0 0.0
2015-Apr-03 11:24N 28°09' W 015°25'0 0.0
2015-Apr-03 10:27N 28°09' W 015°25'0 0.0
2015-Apr-03 09:27N 28°09' W 015°25'0 0.0
2015-Apr-03 08:27N 28°09' W 015°25'0 0.0
2015-Apr-03 07:30N 28°09' W 015°25'0 0.0
2015-Apr-03 06:30N 28°09' W 015°25'1 1.2
2015-Apr-03 05:33N 28°08' W 015°25'5 5.4
2015-Apr-03 04:33N 28°12' W 015°22'1111.0
2015-Apr-03 03:33N 28°23' W 015°18'1111.2
2015-Apr-03 02:33N 28°33' W 015°15'1111.4
2015-Apr-03 01:33N 28°44' W 015°12'1111.4
2015-Apr-03 00:33N 28°55' W 015°08'1212.0
2015-Apr-02 23:33N 29°07' W 015°05'1211.9
2015-Apr-02 22:33N 29°18' W 015°02'1212.1
2015-Apr-02 21:33N 29°30' W 014°59'1212.3
2015-Apr-02 20:33N 29°42' W 014°55'1313.0
2015-Apr-02 19:33N 29°55' W 014°51'1413.5
2015-Apr-02 18:33N 30°08' W 014°47'1413.6
2015-Apr-02 17:33N 30°21' W 014°44'1313.6
2015-Apr-02 16:33N 30°34' W 014°39'1313.3
2015-Apr-02 15:33N 30°47' W 014°35'1413.3
2015-Apr-02 14:30N 31°01' W 014°31'1313.2
2015-Apr-02 13:33N 31°13' W 014°28'8513.2
2015-Apr-02 07:08N 32°35' W 014°02'6013.2
2015-Apr-02 02:33N 33°33' W 013°44'1513.1
2015-Apr-02 01:25N 33°48' W 013°40'1713.1
2015-Apr-02 00:08N 34°04' W 013°35'12113.5
2015-Apr-01 15:11N 36°01' W 012°58'1213.0
2015-Apr-01 14:14N 36°13' W 012°54'3813.3
2015-Apr-01 11:23N 36°49' W 012°42'1113.4
2015-Apr-01 10:33N 37°00' W 012°39'1313.5
2015-Apr-01 09:33N 37°13' W 012°35'1313.3
2015-Apr-01 08:32N 37°26' W 012°30'4312.8
2015-Apr-01 05:13N 38°08' W 012°17'1012.7
2015-Apr-01 04:26N 38°17' W 012°14'2812.9
2015-Apr-01 02:16N 38°44' W 012°05'4013.1
2015-Mar-31 23:12N 39°23' W 011°52'913.1
2015-Mar-31 22:33N 39°32' W 011°49'  
2015-Mar-28 12:32N 54°14' W 005°11'1313.4
2015-Mar-28 11:34N 54°27' W 005°10'1312.5
2015-Mar-28 10:33N 54°40' W 005°12'1312.9
2015-Mar-28 09:34N 54°50' W 005°26'2612.7
2015-Mar-28 07:31N 55°10' W 005°52'1211.9
2015-Mar-28 06:33N 55°20' W 006°05'1212.1
2015-Mar-28 05:33N 55°27' W 006°22'1312.5
2015-Mar-28 04:33N 55°37' W 006°35'1313.2
2015-Mar-28 03:34N 55°47' W 006°49'19310.6
2015-Mar-27 09:24N 58°43' W 004°23'1112.6
2015-Mar-27 08:33N 58°43' W 004°03'1312.6
2015-Mar-27 07:33N 58°43' W 003°39'1313.2
2015-Mar-27 06:33N 58°44' W 003°13'1515.2
2015-Mar-27 05:33N 58°42' W 002°44'41613.4
2015-Mar-25 22:33N 57°49' E 010°20'1413.4
2015-Mar-25 21:33N 57°48' E 010°46'1010.0
2015-Mar-25 20:33N 57°39' E 010°49'9 0.5
2015-Mar-25 02:32N 57°36' E 010°34'0 0.0
2015-Mar-25 01:11N 57°36' E 010°34'0 0.0
2015-Mar-25 00:32N 57°36' E 010°34'0 0.0
2015-Mar-24 23:32N 57°36' E 010°34'  
Track history (hours):
 
Tides and Currents Weather Stations Pressure Air Temp Water Temp Dewpoint Dewpoint Depression Visibility Wind Speed Wind Dir Waves Ship Positions

Green Lofoten

Last reported at 2015-Apr-03 23:04 UTC. Time now 2015-Apr-21 09:52 UTC.
Position N 27°30' W 015°18'.
Warning: this ship's position is 17 days out of date.

Length 98 m; draft 4.9 m.

Type: Cargo ship. MMSI: 212857000.

Date/timePositionNaut miles runAvg speedWind from/ knotsBaromVisibWave heightAir tempDewpointWater temp
2015-Apr-03 23:04N 27°30' W 015°18'713.2
2015-Apr-03 22:33N 27°36' W 015°15'1313.3
2015-Apr-03 21:33N 27°49' W 015°11'1313.0
2015-Apr-03 20:33N 28°01' W 015°16'1110.4
2015-Apr-03 19:33N 28°08' W 015°25'0 0.2
2015-Apr-03 18:33N 28°09' W 015°25'0 0.0
2015-Apr-03 17:33N 28°09' W 015°25'0 0.0
2015-Apr-03 16:33N 28°09' W 015°25'0 0.0
2015-Apr-03 15:33N 28°09' W 015°25'0 0.0
2015-Apr-03 14:33N 28°09' W 015°25'0 0.0
2015-Apr-03 13:33N 28°09' W 015°25'0 0.0
2015-Apr-03 12:24N 28°09' W 015°25'0 0.0
2015-Apr-03 11:24N 28°09' W 015°25'0 0.0
2015-Apr-03 10:27N 28°09' W 015°25'0 0.0
2015-Apr-03 09:27N 28°09' W 015°25'0 0.0
2015-Apr-03 08:27N 28°09' W 015°25'0 0.0
2015-Apr-03 07:30N 28°09' W 015°25'0 0.0
2015-Apr-03 06:30N 28°09' W 015°25'1 1.2
2015-Apr-03 05:33N 28°08' W 015°25'5 5.4
2015-Apr-03 04:33N 28°12' W 015°22'1111.0
2015-Apr-03 03:33N 28°23' W 015°18'1111.2
2015-Apr-03 02:33N 28°33' W 015°15'1111.4
2015-Apr-03 01:33N 28°44' W 015°12'1111.4
2015-Apr-03 00:33N 28°55' W 015°08'1212.0
2015-Apr-02 23:33N 29°07' W 015°05'1211.9
2015-Apr-02 22:33N 29°18' W 015°02'1212.1
2015-Apr-02 21:33N 29°30' W 014°59'1212.3
2015-Apr-02 20:33N 29°42' W 014°55'1313.0
2015-Apr-02 19:33N 29°55' W 014°51'1413.5
2015-Apr-02 18:33N 30°08' W 014°47'1413.6
2015-Apr-02 17:33N 30°21' W 014°44'1313.6
2015-Apr-02 16:33N 30°34' W 014°39'1313.3
2015-Apr-02 15:33N 30°47' W 014°35'1413.3
2015-Apr-02 14:30N 31°01' W 014°31'1313.2
2015-Apr-02 13:33N 31°13' W 014°28'8513.2
2015-Apr-02 07:08N 32°35' W 014°02'6013.2
2015-Apr-02 02:33N 33°33' W 013°44'1513.1
2015-Apr-02 01:25N 33°48' W 013°40'1713.1
2015-Apr-02 00:08N 34°04' W 013°35'12113.5
2015-Apr-01 15:11N 36°01' W 012°58'1213.0
2015-Apr-01 14:14N 36°13' W 012°54'3813.3
2015-Apr-01 11:23N 36°49' W 012°42'1113.4
2015-Apr-01 10:33N 37°00' W 012°39'1313.5
2015-Apr-01 09:33N 37°13' W 012°35'1313.3
2015-Apr-01 08:32N 37°26' W 012°30'4312.8
2015-Apr-01 05:13N 38°08' W 012°17'1012.7
2015-Apr-01 04:26N 38°17' W 012°14'2812.9
2015-Apr-01 02:16N 38°44' W 012°05'4013.1
2015-Mar-31 23:12N 39°23' W 011°52'913.1
2015-Mar-31 22:33N 39°32' W 011°49'  
2015-Mar-28 12:32N 54°14' W 005°11'1313.4
2015-Mar-28 11:34N 54°27' W 005°10'1312.5
2015-Mar-28 10:33N 54°40' W 005°12'1312.9
2015-Mar-28 09:34N 54°50' W 005°26'2612.7
2015-Mar-28 07:31N 55°10' W 005°52'1211.9
2015-Mar-28 06:33N 55°20' W 006°05'1212.1
2015-Mar-28 05:33N 55°27' W 006°22'1312.5
2015-Mar-28 04:33N 55°37' W 006°35'1313.2
2015-Mar-28 03:34N 55°47' W 006°49'19310.6
2015-Mar-27 09:24N 58°43' W 004°23'1112.6
2015-Mar-27 08:33N 58°43' W 004°03'1312.6
2015-Mar-27 07:33N 58°43' W 003°39'1313.2
2015-Mar-27 06:33N 58°44' W 003°13'1515.2
2015-Mar-27 05:33N 58°42' W 002°44'41613.4
2015-Mar-25 22:33N 57°49' E 010°20'1413.4
2015-Mar-25 21:33N 57°48' E 010°46'1010.0
2015-Mar-25 20:33N 57°39' E 010°49'9 0.5
2015-Mar-25 02:32N 57°36' E 010°34'0 0.0
2015-Mar-25 01:11N 57°36' E 010°34'0 0.0
2015-Mar-25 00:32N 57°36' E 010°34'0 0.0
2015-Mar-24 23:32N 57°36' E 010°34'  

Dump ship's entire track history